Time;durP1;ratioP1;P1;durP2;ratioP2;P2;SDS_P1;SDS_P2;PMS_P1;PMS_P2;Temp;Humidity;BMP_temperature;BMP_pressure;BME280_temperature;BME280_humidity;BME280_pressure;Samples;Min_cycle;Max_cycle;Signal;HPM_P1;HPM_P2
2021/11/06 00:00:27;;;;;;;26.07;10.20;;;;;;;3.67;100.00;102652.00;2090825;28;20056;-64
2021/11/06 00:01:27;;;;;;;24.08;11.52;;;;;;;3.66;100.00;102651.13;2091651;28;20031;-64
2021/11/06 00:02:28;;;;;;;30.23;11.63;;;;;;;3.65;100.00;102646.81;2090950;28;20091;-64
2021/11/06 00:03:28;;;;;;;29.80;11.43;;;;;;;3.63;100.00;102648.53;2091004;28;20021;-64
2021/11/06 00:04:28;;;;;;;26.23;10.83;;;;;;;3.63;100.00;102645.94;2091728;28;20029;-64
2021/11/06 00:05:29;;;;;;;25.97;10.57;;;;;;;3.63;100.00;102650.22;2091586;28;20371;-65
2021/11/06 00:06:29;;;;;;;22.40;11.07;;;;;;;3.63;100.00;102650.22;2091029;28;20029;-65
2021/11/06 00:07:29;;;;;;;24.80;11.80;;;;;;;3.64;100.00;102649.38;2090846;28;20091;-65
2021/11/06 00:08:29;;;;;;;22.97;11.80;;;;;;;3.66;100.00;102647.69;2090919;28;20119;-65
2021/11/06 00:09:30;;;;;;;25.37;11.13;;;;;;;3.64;100.00;102651.97;2082696;28;20049;-65
2021/11/06 00:10:30;;;;;;;25.90;11.13;;;;;;;3.62;100.00;102651.94;2090918;28;20025;-64
2021/11/06 00:11:31;;;;;;;26.13;12.80;;;;;;;3.60;100.00;102656.22;2091551;28;20020;-65
2021/11/06 00:12:31;;;;;;;26.50;12.20;;;;;;;3.56;100.00;102650.13;2091630;28;20085;-65
2021/11/06 00:13:32;;;;;;;24.43;10.40;;;;;;;3.56;100.00;102655.28;2091631;28;20028;-65
2021/11/06 00:14:32;;;;;;;22.73;10.53;;;;;;;3.53;100.00;102650.09;2090999;28;20029;-65
2021/11/06 00:15:33;;;;;;;26.15;12.23;;;;;;;3.53;100.00;102644.94;2090900;28;20450;-65
2021/11/06 00:16:33;;;;;;;26.13;11.97;;;;;;;3.50;100.00;102639.72;2091559;28;20040;-65
2021/11/06 00:17:35;;;;;;;25.27;11.27;;;;;;;3.53;100.00;102644.94;2091520;28;20064;-65
2021/11/06 00:18:35;;;;;;;26.40;11.45;;;;;;;3.56;100.00;102644.94;2091553;28;20032;-65
2021/11/06 00:19:35;;;;;;;19.27;11.67;;;;;;;3.59;100.00;102637.25;2091633;28;20378;-65
2021/11/06 00:20:36;;;;;;;28.33;11.20;;;;;;;3.60;100.00;102643.31;2091520;28;20033;-65
2021/11/06 00:21:36;;;;;;;22.40;11.63;;;;;;;3.59;100.00;102647.59;2091509;28;20044;-65
2021/11/06 00:22:37;;;;;;;19.67;10.63;;;;;;;3.57;100.00;102638.97;2091343;28;20109;-66
2021/11/06 00:23:37;;;;;;;19.92;9.63;;;;;;;3.58;100.00;102638.13;2091517;28;20021;-65
2021/11/06 00:24:38;;;;;;;17.43;10.13;;;;;;;3.57;100.00;102626.06;2091439;28;20057;-64
2021/11/06 00:25:38;;;;;;;19.95;10.45;;;;;;;3.55;100.00;102638.06;2091460;28;20071;-65
2021/11/06 00:26:38;;;;;;;18.53;9.90;;;;;;;3.55;100.00;102632.91;2090819;28;20517;-65
2021/11/06 00:27:39;;;;;;;19.20;10.40;;;;;;;3.54;100.00;102633.75;2090768;28;20100;-65
2021/11/06 00:28:40;;;;;;;18.55;9.88;;;;;;;3.54;100.00;102635.44;2091367;28;20064;-65
2021/11/06 00:29:40;;;;;;;23.93;10.70;;;;;;;3.52;100.00;102640.59;2091446;28;20021;-64
2021/11/06 00:30:40;;;;;;;21.60;10.60;;;;;;;3.52;100.00;102642.31;2091357;28;20507;-65
2021/11/06 00:31:41;;;;;;;21.20;9.70;;;;;;;3.54;100.00;102633.75;2091394;28;20749;-65
2021/11/06 00:32:41;;;;;;;18.63;11.10;;;;;;;3.56;100.00;102633.78;2091396;28;20017;-65
2021/11/06 00:33:41;;;;;;;17.67;10.13;;;;;;;3.55;100.00;102632.91;2091511;28;20028;-65
2021/11/06 00:34:42;;;;;;;20.37;10.80;;;;;;;3.56;100.00;102631.19;2091359;28;20017;-65
2021/11/06 00:35:42;;;;;;;20.77;10.93;;;;;;;3.54;100.00;102638.03;2091338;28;20474;-65
2021/11/06 00:36:42;;;;;;;17.17;10.73;;;;;;;3.53;100.00;102634.59;2090721;28;20029;-65
2021/11/06 00:37:44;;;;;;;19.37;10.43;;;;;;;3.52;100.00;102640.59;2090730;28;20017;-65
2021/11/06 00:38:44;;;;;;;;;;;;;;;3.50;100.00;102636.25;2091738;28;20031;-65
2021/11/06 00:39:44;;;;;;;21.73;10.13;;;;;;;3.47;100.00;102635.38;2091333;28;19908;-65
2021/11/06 00:40:45;;;;;;;17.93;10.27;;;;;;;3.48;100.00;102641.38;2090664;28;20492;-65
2021/11/06 00:41:45;;;;;;;20.10;10.33;;;;;;;3.46;100.00;102643.09;2090707;28;20025;-64
2021/11/06 00:42:45;;;;;;;20.37;9.77;;;;;;;3.46;100.00;102638.78;2091309;28;20029;-63
2021/11/06 00:43:46;;;;;;;16.60;10.90;;;;;;;3.47;100.00;102640.53;2091261;28;20031;-63
2021/11/06 00:44:46;;;;;;;17.27;9.93;;;;;;;3.45;100.00;102636.16;2091304;28;20017;-64
2021/11/06 00:45:46;;;;;;;18.07;10.83;;;;;;;3.45;100.00;102638.75;2091384;28;20291;-66
2021/11/06 00:46:46;;;;;;;17.67;10.40;;;;;;;3.46;100.00;102635.34;2091369;28;20486;-65
2021/11/06 00:47:47;;;;;;;20.17;11.03;;;;;;;3.47;100.00;102634.50;2091211;28;20491;-65
2021/11/06 00:48:47;;;;;;;22.80;10.47;;;;;;;3.46;100.00;102635.34;2090604;28;20043;-64
2021/11/06 00:49:49;;;;;;;20.37;11.00;;;;;;;3.44;100.00;102634.44;2090723;28;20021;-66
2021/11/06 00:50:49;;;;;;;;;;;;;;;3.43;100.00;102633.59;2091644;28;20090;-64
2021/11/06 00:51:49;;;;;;;17.65;9.40;;;;;;;3.42;100.00;102634.41;2090488;28;19908;-63
2021/11/06 00:52:51;;;;;;;19.47;9.03;;;;;;;3.41;100.00;102629.22;2090639;28;20037;-64
2021/11/06 00:53:52;;;;;;;17.98;9.45;;;;;;;3.40;100.00;102632.66;2091239;28;20378;-65
2021/11/06 00:54:52;;;;;;;15.43;10.20;;;;;;;3.43;100.00;102632.72;2090564;28;20024;-63
2021/11/06 00:55:52;;;;;;;16.33;9.93;;;;;;;3.44;100.00;102627.56;2090709;28;20413;-63
2021/11/06 00:56:53;;;;;;;18.43;9.67;;;;;;;3.45;100.00;102636.16;2091241;28;20028;-66
2021/11/06 00:57:53;;;;;;;20.03;10.90;;;;;;;3.44;100.00;102624.09;2091180;28;20095;-65
2021/11/06 00:58:53;;;;;;;17.03;9.83;;;;;;;3.43;100.00;102637.88;2091236;28;20390;-65
2021/11/06 00:59:53;;;;;;;16.20;11.20;;;;;;;3.40;100.00;102627.47;2091148;28;20033;-65
2021/11/06 01:00:54;;;;;;;18.77;11.13;;;;;;;3.39;100.00;102636.06;2091161;28;20044;-64
2021/11/06 01:01:54;;;;;;;13.73;9.33;;;;;;;3.39;100.00;102636.94;2091210;28;20033;-64
2021/11/06 01:02:54;;;;;;;15.10;9.43;;;;;;;3.37;100.00;102632.59;2091117;28;20025;-64
2021/11/06 01:03:56;;;;;;;15.33;9.50;;;;;;;3.38;100.00;102640.34;2090484;28;20033;-65
2021/11/06 01:04:56;;;;;;;;;;;;;;;3.39;100.00;102630.91;2090953;28;20036;-64
2021/11/06 01:05:57;;;;;;;15.77;9.60;;;;;;;3.40;100.00;102637.81;2090497;28;20389;-65
2021/11/06 01:06:57;;;;;;;18.92;9.85;;;;;;;3.38;100.00;102631.78;2090574;28;20032;-64
2021/11/06 01:07:58;;;;;;;17.03;9.00;;;;;;;3.40;100.00;102637.81;2091026;28;20106;-65
2021/11/06 01:08:58;;;;;;;13.73;10.55;;;;;;;3.43;100.00;102635.28;2091064;28;20032;-65
2021/11/06 01:09:58;;;;;;;15.77;10.47;;;;;;;3.42;100.00;102638.72;2090405;28;20548;-65
2021/11/06 01:10:59;;;;;;;20.20;10.93;;;;;;;3.40;100.00;102632.66;2090331;28;20024;-64
2021/11/06 01:11:59;;;;;;;16.50;9.97;;;;;;;3.39;100.00;102630.91;2091058;28;20025;-63
2021/11/06 01:12:59;;;;;;;17.13;9.93;;;;;;;3.37;100.00;102640.34;2091077;28;20390;-64
2021/11/06 01:14:00;;;;;;;15.23;9.73;;;;;;;3.35;100.00;102641.19;2091105;28;20021;-64
2021/11/06 01:15:00;;;;;;;17.80;10.97;;;;;;;3.33;100.00;102637.72;2090418;28;20086;-64
2021/11/06 01:16:01;;;;;;;18.00;10.50;;;;;;;3.35;100.00;102638.59;2090485;28;20039;-64
2021/11/06 01:17:01;;;;;;;16.27;9.77;;;;;;;3.34;100.00;102647.19;2091108;28;20056;-64
2021/11/06 01:18:01;;;;;;;17.13;9.90;;;;;;;3.32;100.00;102645.44;2091018;28;20024;-64
2021/11/06 01:19:02;;;;;;;15.77;10.50;;;;;;;3.29;100.00;102640.22;2091095;28;20033;-64
2021/11/06 01:20:04;;;;;;;18.73;10.37;;;;;;;3.31;100.00;102635.94;2090958;28;20053;-64
2021/11/06 01:21:04;;;;;;;15.85;10.48;;;;;;;3.32;100.00;102645.44;2090995;28;20025;-64
2021/11/06 01:22:05;;;;;;;15.87;10.57;;;;;;;3.35;100.00;102641.19;2091055;28;20057;-64
2021/11/06 01:23:05;;;;;;;20.30;10.17;;;;;;;3.38;100.00;102644.69;2090881;28;20049;-64
2021/11/06 01:24:06;;;;;;;15.98;10.23;;;;;;;3.37;100.00;102640.34;2091070;28;20353;-64
2021/11/06 01:25:07;;;;;;;16.10;10.43;;;;;;;3.34;100.00;102636.88;2091081;28;20032;-64
2021/11/06 01:26:07;;;;;;;18.30;10.77;;;;;;;3.30;100.00;102637.66;2090240;28;20083;-65
2021/11/06 01:27:10;;;;;;;18.67;10.30;;;;;;;3.29;100.00;102646.22;2090280;28;20024;-64
2021/11/06 01:28:11;;;;;;;15.30;9.65;;;;;;;3.29;100.00;102646.22;2090303;28;20100;-64
2021/11/06 01:29:11;;;;;;;17.27;11.57;;;;;;;3.28;100.00;102649.66;2090479;28;20379;-64
2021/11/06 01:30:12;;;;;;;17.70;10.00;;;;;;;3.28;100.00;102643.66;2090912;28;20033;-63
2021/11/06 01:31:12;;;;;;;14.75;10.20;;;;;;;3.28;100.00;102635.91;2090944;28;20028;-63
2021/11/06 01:32:12;;;;;;;14.10;9.63;;;;;;;3.25;100.00;102634.13;2090845;28;20028;-64
2021/11/06 01:33:13;;;;;;;18.47;10.90;;;;;;;3.28;100.00;102639.34;2090250;28;20524;-64
2021/11/06 01:34:13;;;;;;;16.10;10.63;;;;;;;3.31;100.00;102641.09;2090456;28;20472;-65
2021/11/06 01:35:14;;;;;;;20.17;11.83;;;;;;;3.32;100.00;102635.97;2090214;28;20033;-63
2021/11/06 01:36:15;;;;;;;17.85;10.52;;;;;;;3.30;100.00;102642.81;2082082;28;20072;-65
2021/11/06 01:37:16;;;;;;;18.90;11.40;;;;;;;3.28;100.00;102639.34;2090210;28;20025;-65
2021/11/06 01:38:16;;;;;;;16.85;10.48;;;;;;;3.26;100.00;102635.88;2090341;28;20452;-65
2021/11/06 01:39:16;;;;;;;20.83;11.00;;;;;;;3.28;100.00;102641.91;2090917;28;20112;-65
2021/11/06 01:40:19;;;;;;;19.17;10.40;;;;;;;3.27;100.00;102641.88;2090294;28;20474;-64
2021/11/06 01:41:19;;;;;;;15.55;10.93;;;;;;;3.26;100.00;102635.88;2090269;28;20031;-64
2021/11/06 01:42:20;;;;;;;14.20;9.80;;;;;;;3.26;100.00;102641.03;2090868;28;20079;-65
2021/11/06 01:43:20;;;;;;;14.20;9.63;;;;;;;3.26;100.00;102641.03;2090910;28;20037;-65
2021/11/06 01:44:20;;;;;;;15.40;10.27;;;;;;;3.26;100.00;102640.16;2090828;28;20112;-64
2021/11/06 01:45:22;;;;;;;16.67;11.03;;;;;;;3.22;100.00;102628.94;2090870;28;20386;-64
2021/11/06 01:46:23;;;;;;;16.17;9.73;;;;;;;3.21;100.00;102634.91;2090178;28;20043;-64
2021/11/06 01:47:23;;;;;;;15.93;9.90;;;;;;;3.18;100.00;102640.03;2090150;28;20036;-64
2021/11/06 01:48:24;;;;;;;20.33;10.23;;;;;;;3.17;100.00;102640.84;2090840;28;20104;-65
2021/11/06 01:49:25;;;;;;;13.07;9.57;;;;;;;3.16;100.00;102636.56;2090195;28;20029;-64
2021/11/06 01:50:26;;;;;;;15.68;10.15;;;;;;;3.18;100.00;102637.47;2090187;28;20141;-64
2021/11/06 01:51:27;;;;;;;13.65;9.88;;;;;;;3.19;100.00;102639.19;2090769;28;20033;-65
2021/11/06 01:52:28;;;;;;;17.48;10.57;;;;;;;3.19;100.00;102634.03;2090741;28;20392;-63
2021/11/06 01:53:29;;;;;;;16.23;10.47;;;;;;;3.18;100.00;102638.31;2090722;28;20021;-64
2021/11/06 01:54:29;;;;;;;13.90;9.63;;;;;;;3.18;100.00;102632.31;2090766;28;20025;-67
2021/11/06 01:55:30;;;;;;;17.30;11.37;;;;;;;3.21;100.00;102632.31;2090794;28;20025;-64
2021/11/06 01:56:30;;;;;;;13.77;9.27;;;;;;;3.22;100.00;102631.50;2090722;28;20025;-64
2021/11/06 01:57:30;;;;;;;15.67;10.23;;;;;;;3.21;100.00;102629.75;2090797;28;20024;-63
2021/11/06 01:58:31;;;;;;;17.17;9.63;;;;;;;3.19;100.00;102628.88;2090073;28;20064;-65
2021/11/06 01:59:31;;;;;;;16.27;9.95;;;;;;;3.16;100.00;102629.69;2090162;28;20040;-64
2021/11/06 02:00:32;;;;;;;14.25;10.70;;;;;;;3.17;100.00;102622.81;2090717;28;20043;-64
2021/11/06 02:01:32;;;;;;;13.73;10.40;;;;;;;3.17;100.00;102627.97;2090738;28;20481;-65
2021/11/06 02:02:34;;;;;;;15.87;11.00;;;;;;;3.16;100.00;102627.09;2090013;28;20052;-63
2021/11/06 02:03:35;;;;;;;;;;;;;;;3.18;100.00;102627.13;2090585;28;20033;-64
2021/11/06 02:04:35;;;;;;;13.25;9.40;;;;;;;3.18;100.00;102621.97;2090658;28;19912;-63
2021/11/06 02:05:35;;;;;;;12.33;9.57;;;;;;;3.17;100.00;102623.69;2090700;28;20394;-63
2021/11/06 02:06:35;;;;;;;14.33;10.23;;;;;;;3.17;100.00;102626.25;2090757;28;20036;-64
2021/11/06 02:07:36;;;;;;;13.57;9.87;;;;;;;3.18;100.00;102622.81;2090677;28;20020;-63
2021/11/06 02:08:37;;;;;;;15.48;10.90;;;;;;;3.17;100.00;102626.25;2090650;28;20020;-64
2021/11/06 02:09:37;;;;;;;17.08;10.18;;;;;;;3.15;100.00;102621.91;2090673;28;20466;-65
2021/11/06 02:10:40;;;;;;;15.63;10.45;;;;;;;3.16;100.00;102621.06;2090775;28;20054;-65
2021/11/06 02:11:40;;;;;;;16.85;10.55;;;;;;;3.16;100.00;102621.06;2090863;28;20024;-65
2021/11/06 02:12:42;;;;;;;18.60;10.17;;;;;;;3.14;100.00;102620.16;2090699;28;20530;-64
2021/11/06 02:13:43;;;;;;;17.67;10.68;;;;;;;3.12;100.00;102616.69;2090784;28;20074;-64
2021/11/06 02:14:44;;;;;;;14.27;9.70;;;;;;;3.12;100.00;102622.75;2090056;28;20498;-65
2021/11/06 02:15:45;;;;;;;17.77;10.15;;;;;;;3.13;100.00;102619.31;2090281;28;20025;-65
2021/11/06 02:16:45;;;;;;;14.30;9.68;;;;;;;3.15;100.00;102621.91;2090140;28;20059;-65
2021/11/06 02:17:46;;;;;;;14.50;9.67;;;;;;;3.13;100.00;102611.56;2081722;28;20076;-65
2021/11/06 02:18:47;;;;;;;13.40;10.50;;;;;;;3.16;100.00;102618.50;2081682;28;20057;-65
2021/11/06 02:19:48;;;;;;;16.80;9.27;;;;;;;3.14;100.00;102610.72;2089885;28;20020;-65
2021/11/06 02:20:58;;;;;;;16.37;10.50;;;;;;;3.13;100.00;102602.94;2090582;28;20013;-65
2021/11/06 02:22:00;;;;;;;14.50;9.50;;;;;;;3.12;100.00;102611.53;2090553;28;20024;-65
2021/11/06 02:23:01;;;;;;;14.27;9.45;;;;;;;3.13;100.00;102616.72;2089732;28;20652;-64
2021/11/06 02:24:01;;;;;;;14.60;10.20;;;;;;;3.14;100.00;102617.56;2090527;28;20029;-65
2021/11/06 02:25:02;;;;;;;16.17;9.30;;;;;;;3.13;100.00;102608.09;2089883;28;20025;-65
2021/11/06 02:26:03;;;;;;;14.05;10.07;;;;;;;3.14;100.00;102609.84;2089956;28;20095;-66
2021/11/06 02:27:03;;;;;;;17.67;10.73;;;;;;;3.15;100.00;102606.44;2090493;28;20021;-65
2021/11/06 02:28:04;;;;;;;17.13;10.88;;;;;;;3.20;100.00;102609.97;2090428;28;20040;-65
2021/11/06 02:29:04;;;;;;;18.30;10.68;;;;;;;3.21;100.00;102604.81;2090589;28;20032;-66
2021/11/06 02:30:07;;;;;;;13.48;9.68;;;;;;;3.22;100.00;102611.72;2090461;28;20122;-65
2021/11/06 02:31:08;;;;;;;12.77;9.75;;;;;;;3.21;100.00;102609.09;2090449;28;20025;-64
2021/11/06 02:32:08;;;;;;;14.75;10.15;;;;;;;3.20;100.00;102610.84;2090453;28;20126;-65
2021/11/06 02:33:09;;;;;;;15.83;10.23;;;;;;;3.20;100.00;102609.97;2090500;28;20532;-65
2021/11/06 02:34:10;;;;;;;14.63;9.93;;;;;;;3.20;100.00;102616.00;2090624;28;20043;-66
2021/11/06 02:35:11;;;;;;;14.00;10.23;;;;;;;3.23;100.00;102604.84;2089798;28;20474;-65
2021/11/06 02:36:12;;;;;;;14.50;9.43;;;;;;;3.24;100.00;102609.16;2089875;28;20103;-65
2021/11/06 02:37:12;;;;;;;14.70;10.27;;;;;;;3.22;100.00;102603.97;2090536;28;20032;-65
2021/11/06 02:38:13;;;;;;;18.40;10.20;;;;;;;3.25;100.00;102608.31;2089763;28;20021;-66
2021/11/06 02:39:14;;;;;;;15.10;10.27;;;;;;;3.28;100.00;102605.78;2089865;28;20074;-66
2021/11/06 02:40:15;;;;;;;16.30;9.93;;;;;;;3.30;100.00;102606.69;2090447;28;20100;-65
2021/11/06 02:41:15;;;;;;;14.23;9.90;;;;;;;3.33;100.00;102611.91;2090410;28;20021;-65
2021/11/06 02:42:16;;;;;;;12.82;9.57;;;;;;;3.33;100.00;102608.47;2090338;28;20036;-65
2021/11/06 02:43:16;;;;;;;16.15;9.85;;;;;;;3.33;100.00;102614.50;2090410;28;20037;-66
2021/11/06 02:44:16;;;;;;;15.67;9.63;;;;;;;3.33;100.00;102611.91;2090448;28;20037;-65
2021/11/06 02:45:17;;;;;;;13.50;9.37;;;;;;;3.32;100.00;102606.72;2090398;28;20044;-65
2021/11/06 02:46:17;;;;;;;15.77;10.07;;;;;;;3.34;100.00;102605.03;2089702;28;20533;-65
2021/11/06 02:47:18;;;;;;;13.13;8.90;;;;;;;3.33;100.00;102603.28;2089709;28;20041;-65
2021/11/06 02:48:18;;;;;;;12.70;8.93;;;;;;;3.31;100.00;102604.97;2090336;28;20064;-66
2021/11/06 02:49:18;;;;;;;13.73;9.23;;;;;;;3.32;100.00;102611.88;2090451;28;20102;-65
2021/11/06 02:50:18;;;;;;;13.50;9.53;;;;;;;3.29;100.00;102606.66;2090343;28;20079;-65
2021/11/06 02:51:19;;;;;;;15.67;10.00;;;;;;;3.28;100.00;102617.84;2090292;28;20386;-65
2021/11/06 02:52:19;;;;;;;14.57;9.60;;;;;;;3.27;100.00;102623.81;2090337;28;20077;-64
2021/11/06 02:53:20;;;;;;;14.90;9.77;;;;;;;3.25;100.00;102622.94;2089607;28;20028;-64
2021/11/06 02:54:21;;;;;;;18.00;9.35;;;;;;;3.24;100.00;102627.22;2089735;28;20542;-64
2021/11/06 02:55:22;;;;;;;13.90;9.55;;;;;;;3.25;100.00;102628.09;2090293;28;20048;-65
2021/11/06 02:56:26;;;;;;;11.65;7.88;;;;;;;3.32;100.00;102633.38;2090325;28;20493;-66
2021/11/06 02:57:27;;;;;;;13.40;8.55;;;;;;;3.37;100.00;102630.00;2090183;28;20037;-64
2021/11/06 02:58:29;;;;;;;17.40;9.70;;;;;;;3.38;100.00;102624.03;2089555;28;20367;-65
2021/11/06 02:59:29;;;;;;;14.98;9.20;;;;;;;3.40;100.00;102627.47;2089644;28;20033;-65
2021/11/06 03:00:32;;;;;;;14.77;8.97;;;;;;;3.42;100.00;102624.09;2090276;28;20521;-64
2021/11/06 03:01:33;;;;;;;14.40;8.60;;;;;;;3.41;100.00;102624.94;2090202;28;20021;-64
2021/11/06 03:02:33;;;;;;;13.07;9.40;;;;;;;3.42;100.00;102628.41;2090337;28;20029;-65
2021/11/06 03:03:34;;;;;;;14.10;8.93;;;;;;;3.43;100.00;102627.53;2090324;28;20277;-65
2021/11/06 03:04:36;;;;;;;14.57;8.90;;;;;;;3.41;100.00;102630.09;2090277;28;20470;-64
2021/11/06 03:05:36;;;;;;;11.02;8.15;;;;;;;3.42;100.00;102633.56;2089586;28;20063;-65
2021/11/06 03:06:37;;;;;;;16.43;9.10;;;;;;;3.42;100.00;102633.56;2089599;28;20474;-64
2021/11/06 03:07:37;;;;;;;13.68;9.35;;;;;;;3.45;100.00;102631.00;2089558;28;20029;-65
2021/11/06 03:08:38;;;;;;;14.07;9.50;;;;;;;3.47;100.00;102626.75;2089651;28;20017;-65
2021/11/06 03:09:39;;;;;;;12.20;10.03;;;;;;;3.49;100.00;102627.63;2089586;28;20025;-64
2021/11/06 03:10:39;;;;;;;;;;;;;;;3.52;100.00;102626.84;2090611;28;20025;-64
2021/11/06 03:11:40;;;;;;;10.50;6.78;;;;;;;3.53;100.00;102623.41;2090264;28;19966;-65
2021/11/06 03:12:41;;;;;;;13.35;7.85;;;;;;;3.55;100.00;102625.16;2090228;28;20493;-64
2021/11/06 03:13:44;;;;;;;12.52;8.98;;;;;;;3.55;100.00;102622.56;2090273;28;20108;-64
2021/11/06 03:14:44;;;;;;;14.80;8.52;;;;;;;3.55;100.00;102622.56;2090167;28;20016;-64
2021/11/06 03:15:45;;;;;;;14.97;10.03;;;;;;;3.55;100.00;102620.00;2089527;28;20023;-64
2021/11/06 03:16:45;;;;;;;14.77;9.33;;;;;;;3.56;100.00;102624.31;2089684;28;20031;-64
2021/11/06 03:17:45;;;;;;;12.37;9.23;;;;;;;3.56;100.00;102619.13;2089520;28;20028;-65
2021/11/06 03:18:45;;;;;;;17.27;9.60;;;;;;;3.57;100.00;102620.91;2089652;28;20702;-64
2021/11/06 03:19:46;;;;;;;13.37;9.27;;;;;;;3.56;100.00;102619.13;2090197;28;20032;-64
2021/11/06 03:20:46;;;;;;;14.63;8.30;;;;;;;3.58;100.00;102617.47;2090196;28;20398;-65
2021/11/06 03:21:46;;;;;;;13.03;8.33;;;;;;;3.59;100.00;102614.03;2090176;28;20020;-64
2021/11/06 03:22:47;;;;;;;15.20;9.83;;;;;;;3.61;100.00;102621.81;2090073;28;20049;-65
2021/11/06 03:23:48;;;;;;;14.10;9.57;;;;;;;3.62;100.00;102623.53;2090220;28;20045;-64
2021/11/06 03:24:49;;;;;;;20.20;9.52;;;;;;;3.64;100.00;102620.97;2090146;28;20027;-64
2021/11/06 03:25:49;;;;;;;16.08;9.25;;;;;;;3.64;100.00;102611.53;2089444;28;20048;-65
2021/11/06 03:26:49;;;;;;;11.73;8.57;;;;;;;3.66;100.00;102614.13;2081182;28;20041;-64
2021/11/06 03:27:50;;;;;;;14.70;10.80;;;;;;;3.68;100.00;102607.25;2089436;28;20053;-65
2021/11/06 03:28:51;;;;;;;15.48;10.57;;;;;;;3.69;100.00;102603.81;2090156;28;20083;-64
2021/11/06 03:29:51;;;;;;;14.20;10.23;;;;;;;3.72;100.00;102604.75;2090114;28;20440;-65
2021/11/06 03:30:52;;;;;;;16.55;9.50;;;;;;;3.74;100.00;102612.53;2090138;28;20029;-65
2021/11/06 03:31:52;;;;;;;15.40;9.98;;;;;;;3.76;100.00;102613.41;2090193;28;20029;-65
2021/11/06 03:32:54;;;;;;;13.80;9.67;;;;;;;3.78;100.00;102609.16;2090156;28;20057;-65
2021/11/06 03:33:54;;;;;;;13.57;8.98;;;;;;;3.81;100.00;102616.94;2090076;28;20024;-65
2021/11/06 03:34:54;;;;;;;14.17;10.00;;;;;;;3.83;100.00;102614.38;2090718;28;20049;-64
2021/11/06 03:35:55;;;;;;;13.20;9.33;;;;;;;3.85;100.00;102608.38;2091851;28;20035;-65
2021/11/06 03:36:56;;;;;;;14.38;8.43;;;;;;;3.89;100.00;102611.00;2091189;28;20510;-65
2021/11/06 03:37:58;;;;;;;14.27;8.77;;;;;;;3.90;100.00;102608.44;2091232;28;20112;-65
2021/11/06 03:38:58;;;;;;;13.20;8.95;;;;;;;3.92;100.00;102601.59;2082988;28;20032;-64
2021/11/06 03:39:59;;;;;;;14.87;9.80;;;;;;;3.96;100.00;102605.06;2091279;28;20032;-65
2021/11/06 03:40:59;;;;;;;11.80;8.43;;;;;;;3.97;100.00;102604.25;2091766;28;20025;-65
2021/11/06 03:41:59;;;;;;;17.67;9.50;;;;;;;3.99;100.00;102599.94;2091812;28;20032;-65
2021/11/06 03:43:00;;;;;;;18.23;8.93;;;;;;;4.00;100.00;102593.94;2091905;28;20052;-65
2021/11/06 03:44:00;;;;;;;16.33;10.07;;;;;;;4.02;100.00;102602.59;2091717;28;20021;-66
2021/11/06 03:45:01;;;;;;;13.87;9.63;;;;;;;4.04;100.00;102611.22;2091815;28;20028;-65
2021/11/06 03:46:03;;;;;;;12.95;8.88;;;;;;;4.08;100.00;102601.78;2090940;28;20510;-64
2021/11/06 03:47:03;;;;;;;13.63;8.98;;;;;;;4.08;100.00;102602.66;2091198;28;20518;-65
2021/11/06 03:48:04;;;;;;;14.93;9.73;;;;;;;4.10;100.00;102608.72;2091594;28;20044;-66
2021/11/06 03:49:05;;;;;;;16.13;9.48;;;;;;;4.10;100.00;102590.63;2091721;28;20290;-66
2021/11/06 03:50:08;;;;;;;11.90;8.32;;;;;;;4.12;100.00;102599.28;2091706;28;20025;-65
2021/11/06 03:51:09;;;;;;;14.13;10.02;;;;;;;4.12;100.00;102601.00;2091751;28;20029;-66
2021/11/06 03:52:09;;;;;;;15.50;8.93;;;;;;;4.15;100.00;102607.91;2091689;28;20049;-66
2021/11/06 03:53:09;;;;;;;12.53;9.23;;;;;;;4.16;99.94;102599.28;2091800;28;20017;-65
2021/11/06 03:54:10;;;;;;;14.50;9.00;;;;;;;4.18;100.00;102600.19;2091708;28;20390;-66
2021/11/06 03:55:11;;;;;;;14.68;9.23;;;;;;;4.20;100.00;102614.88;2090936;28;20021;-67
2021/11/06 03:56:12;;;;;;;13.35;9.38;;;;;;;4.20;99.71;102608.81;2091021;28;20048;-65
2021/11/06 03:57:12;;;;;;;13.27;8.23;;;;;;;4.21;100.00;102608.00;2091599;28;20064;-65
2021/11/06 03:58:12;;;;;;;12.47;8.77;;;;;;;4.22;99.59;102599.38;2091640;28;20493;-66
2021/11/06 03:59:13;;;;;;;15.43;9.43;;;;;;;4.24;99.59;102602.84;2091687;28;20021;-65
2021/11/06 04:00:15;;;;;;;13.63;8.30;;;;;;;4.24;99.81;102595.97;2091685;28;20056;-66
2021/11/06 04:01:16;;;;;;;14.60;9.20;;;;;;;4.24;99.97;102593.38;2091651;28;20044;-65
2021/11/06 04:02:17;;;;;;;15.05;9.25;;;;;;;4.25;99.79;102591.69;2091637;28;20393;-64
2021/11/06 04:03:17;;;;;;;13.68;9.18;;;;;;;4.24;99.68;102593.38;2091677;28;20407;-66
2021/11/06 04:04:17;;;;;;;9.63;8.43;;;;;;;4.24;99.68;102590.81;2091597;28;20045;-66
2021/11/06 04:05:18;;;;;;;13.57;8.40;;;;;;;4.25;99.74;102589.09;2091593;28;20033;-64
2021/11/06 04:06:18;;;;;;;17.47;9.20;;;;;;;4.24;99.86;102592.50;2091649;28;20032;-65
2021/11/06 04:07:18;;;;;;;12.73;9.00;;;;;;;4.23;99.56;102593.38;2091537;28;20645;-65
2021/11/06 04:08:19;;;;;;;12.83;8.47;;;;;;;4.23;99.85;102593.38;2091615;28;20048;-65
2021/11/06 04:09:20;;;;;;;13.05;9.18;;;;;;;4.22;99.80;102594.22;2091626;28;20478;-64
2021/11/06 04:10:20;;;;;;;14.33;8.87;;;;;;;4.19;99.68;102592.47;2090923;28;20029;-65
2021/11/06 04:11:22;;;;;;;17.33;9.07;;;;;;;4.15;99.91;102592.41;2090992;28;20028;-66
2021/11/06 04:12:22;;;;;;;13.43;9.13;;;;;;;4.12;100.00;102594.13;2091644;28;20467;-65
2021/11/06 04:13:23;;;;;;;14.27;9.43;;;;;;;4.11;99.94;102589.78;2091610;28;20029;-64
2021/11/06 04:14:23;;;;;;;14.43;8.90;;;;;;;4.10;99.82;102595.78;2091593;28;20029;-65
2021/11/06 04:15:23;;;;;;;13.50;7.97;;;;;;;4.12;99.81;102593.25;2091538;28;20029;-64
2021/11/06 04:16:24;;;;;;;13.70;9.37;;;;;;;4.12;99.46;102591.53;2091583;28;20033;-65
2021/11/06 04:17:24;;;;;;;13.48;8.25;;;;;;;4.14;99.81;102590.69;2091508;28;20096;-65
2021/11/06 04:18:24;;;;;;;14.93;9.17;;;;;;;4.14;99.51;102590.69;2091534;28;20490;-64
2021/11/06 04:19:25;;;;;;;15.30;8.37;;;;;;;4.13;99.73;102594.97;2090874;28;20106;-64
2021/11/06 04:20:25;;;;;;;11.23;8.10;;;;;;;4.12;99.47;102588.94;2090931;28;20045;-65
2021/11/06 04:21:25;;;;;;;15.00;8.90;;;;;;;4.11;99.67;102584.59;2091508;28;20037;-65
2021/11/06 04:22:26;;;;;;;12.63;8.27;;;;;;;4.12;99.50;102596.69;2091318;28;20029;-65
2021/11/06 04:23:26;;;;;;;12.07;8.30;;;;;;;4.14;99.31;102601.00;2090813;28;20021;-65
2021/11/06 04:24:26;;;;;;;16.90;9.47;;;;;;;4.14;99.18;102593.25;2082598;28;20021;-64
2021/11/06 04:25:27;;;;;;;10.97;8.07;;;;;;;4.12;99.58;102601.88;2090890;28;20071;-65
2021/11/06 04:26:27;;;;;;;11.63;7.57;;;;;;;4.11;99.13;102597.53;2091454;28;20116;-64
2021/11/06 04:27:27;;;;;;;11.27;7.90;;;;;;;4.10;99.42;102598.38;2091413;28;20454;-64
2021/11/06 04:28:28;;;;;;;11.77;8.10;;;;;;;4.09;99.35;102586.31;2091495;28;20053;-65
2021/11/06 04:29:28;;;;;;;19.35;9.27;;;;;;;4.09;99.24;102593.19;2091486;28;20470;-65
2021/11/06 04:30:29;;;;;;;11.97;9.03;;;;;;;4.07;98.98;102589.72;2091519;28;20078;-65
2021/11/06 04:31:29;;;;;;;17.23;9.23;;;;;;;4.06;99.32;102587.97;2091411;28;20476;-64
2021/11/06 04:32:29;;;;;;;11.23;8.23;;;;;;;4.05;99.51;102591.41;2090771;28;20414;-66
2021/11/06 04:33:30;;;;;;;14.77;8.17;;;;;;;4.03;99.34;102588.81;2090833;28;20028;-66
2021/11/06 04:34:30;;;;;;;10.37;7.87;;;;;;;4.03;99.48;102588.81;2091395;28;20035;-66
2021/11/06 04:35:31;;;;;;;11.97;8.33;;;;;;;4.03;99.05;102591.38;2091379;28;20025;-65
2021/11/06 04:36:31;;;;;;;12.27;8.53;;;;;;;4.04;99.32;102594.84;2091451;28;20441;-64
2021/11/06 04:37:31;;;;;;;12.77;7.75;;;;;;;4.02;99.23;102591.38;2091343;28;20510;-64
2021/11/06 04:38:32;;;;;;;14.50;8.60;;;;;;;4.01;99.14;102594.81;2091442;28;20017;-64